createdAt,value
2018-12-26T00:01:27.450Z,1.70
2018-12-26T00:04:08.929Z,1.60
2018-12-26T00:06:50.195Z,2.17
2018-12-26T00:09:34.362Z,2.00
2018-12-26T00:12:15.554Z,2.20
2018-12-26T00:14:56.494Z,2.57
2018-12-26T00:17:37.460Z,1.97
2018-12-26T00:20:18.536Z,1.90
2018-12-26T00:22:59.454Z,1.90
2018-12-26T00:25:40.107Z,1.67
2018-12-26T00:28:22.566Z,2.20
2018-12-26T00:31:03.330Z,1.67
2018-12-26T00:33:46.332Z,2.30
2018-12-26T00:36:27.690Z,1.70
2018-12-26T00:39:09.008Z,1.60
2018-12-26T00:41:48.442Z,2.50
2018-12-26T00:44:29.684Z,2.17
2018-12-26T00:47:10.237Z,2.00
2018-12-26T00:49:51.024Z,1.93
2018-12-26T00:52:34.676Z,1.83
2018-12-26T00:55:16.278Z,2.53
2018-12-26T00:57:57.138Z,2.30
2018-12-26T01:00:43.972Z,2.30
2018-12-26T01:03:24.829Z,2.17
2018-12-26T01:06:05.982Z,1.90
2018-12-26T01:08:46.794Z,2.47
2018-12-26T01:11:27.735Z,2.50
2018-12-26T01:14:08.549Z,2.07
2018-12-26T01:16:49.624Z,3.00
2018-12-26T01:19:30.546Z,2.27
2018-12-26T01:22:12.034Z,3.70
2018-12-26T01:24:52.913Z,2.33
2018-12-26T01:27:34.218Z,2.50
2018-12-26T01:30:17.230Z,2.67
2018-12-26T01:32:57.907Z,2.67
2018-12-26T01:35:38.792Z,3.27
2018-12-26T01:38:20.547Z,2.40
2018-12-26T01:41:01.209Z,2.60
2018-12-26T01:46:02.201Z,2.70
2018-12-26T01:48:43.136Z,2.83
2018-12-26T01:51:24.165Z,2.60
2018-12-26T01:54:05.494Z,2.10
2018-12-26T01:56:46.135Z,2.17
2018-12-26T01:59:27.287Z,2.40
2018-12-26T02:02:08.964Z,2.67
2018-12-26T02:04:49.333Z,2.10
2018-12-26T02:07:30.135Z,2.50
2018-12-26T02:10:10.511Z,2.53
2018-12-26T02:12:51.729Z,2.20
2018-12-26T02:15:32.849Z,2.20
2018-12-26T02:18:13.512Z,2.13
2018-12-26T02:20:53.074Z,2.17
2018-12-26T02:23:41.238Z,2.00
2018-12-26T02:26:22.409Z,2.40
2018-12-26T02:29:03.401Z,2.30
2018-12-26T02:31:45.009Z,2.17
2018-12-26T02:34:30.636Z,2.40
2018-12-26T02:37:11.199Z,2.73
2018-12-26T02:39:51.817Z,2.30
2018-12-26T02:42:32.441Z,2.70
2018-12-26T02:45:13.209Z,2.70
2018-12-26T02:47:54.010Z,2.27
2018-12-26T02:50:34.771Z,2.90
2018-12-26T02:53:17.411Z,3.10
2018-12-26T02:55:58.511Z,2.73
2018-12-26T02:58:39.105Z,2.90
2018-12-26T03:01:19.575Z,2.73
2018-12-26T03:04:00.379Z,3.77
2018-12-26T03:06:41.029Z,2.70
2018-12-26T03:09:21.815Z,3.03
2018-12-26T03:12:02.631Z,3.43
2018-12-26T03:14:44.330Z,2.93
2018-12-26T03:17:25.766Z,3.00
2018-12-26T03:20:08.282Z,3.57
2018-12-26T03:22:49.148Z,3.47
2018-12-26T03:25:29.841Z,4.90
2018-12-26T03:28:11.498Z,4.63
2018-12-26T03:30:52.003Z,4.63
2018-12-26T03:33:39.128Z,5.57
2018-12-26T03:36:19.983Z,5.30
2018-12-26T03:39:01.126Z,5.80
2018-12-26T03:41:41.727Z,5.57
2018-12-26T03:44:23.076Z,5.00
2018-12-26T03:47:04.459Z,5.40
2018-12-26T03:49:45.310Z,5.20
2018-12-26T03:52:26.629Z,6.00
2018-12-26T03:55:07.256Z,6.07
2018-12-26T03:57:47.937Z,6.07
2018-12-26T04:00:28.535Z,7.40
2018-12-26T04:03:09.363Z,6.80
2018-12-26T04:05:50.678Z,7.80
2018-12-26T04:08:32.126Z,6.60
2018-12-26T04:11:12.889Z,7.03
2018-12-26T04:13:54.426Z,7.63
2018-12-26T04:16:35.177Z,7.13
2018-12-26T04:19:15.848Z,7.77
2018-12-26T04:21:58.872Z,8.70
2018-12-26T04:24:40.804Z,9.57
2018-12-26T04:27:22.213Z,8.53
2018-12-26T04:30:03.458Z,7.43
2018-12-26T04:32:44.108Z,8.13
2018-12-26T04:35:25.636Z,8.90
2018-12-26T04:38:06.835Z,8.93
2018-12-26T04:40:47.757Z,8.80
2018-12-26T04:43:27.084Z,9.83
2018-12-26T04:46:15.150Z,7.97
2018-12-26T04:48:56.288Z,8.43
2018-12-26T04:51:37.264Z,8.57
2018-12-26T04:54:18.660Z,8.83
2018-12-26T04:57:02.857Z,8.70
2018-12-26T04:59:44.037Z,7.10
2018-12-26T05:02:25.255Z,7.50
2018-12-26T05:05:06.455Z,8.70
2018-12-26T05:07:46.856Z,8.23
2018-12-26T05:10:28.019Z,8.47
2018-12-26T05:13:08.862Z,8.20
2018-12-26T05:15:50.156Z,7.97
2018-12-26T05:18:30.939Z,7.80
2018-12-26T05:21:11.925Z,9.47
2018-12-26T05:23:52.988Z,8.90
2018-12-26T05:26:33.674Z,8.60
2018-12-26T05:29:14.934Z,9.50
2018-12-26T05:31:55.721Z,8.60
2018-12-26T05:34:37.189Z,9.20
2018-12-26T05:37:17.739Z,9.20
2018-12-26T05:39:58.542Z,9.33
2018-12-26T05:42:39.332Z,8.70
2018-12-26T05:45:20.408Z,8.10
2018-12-26T05:48:01.497Z,8.83
2018-12-26T05:50:42.101Z,9.80
2018-12-26T05:53:22.811Z,9.43
2018-12-26T05:56:03.557Z,9.50
2018-12-26T05:58:44.589Z,10.10
2018-12-26T06:01:25.411Z,9.47
2018-12-26T06:04:06.192Z,9.17
2018-12-26T06:06:46.549Z,9.20
2018-12-26T06:09:27.331Z,9.70
2018-12-26T06:12:08.091Z,9.17
2018-12-26T06:14:49.241Z,8.70
2018-12-26T06:17:30.211Z,9.00
2018-12-26T06:20:11.083Z,9.10
2018-12-26T06:22:51.831Z,8.90
2018-12-26T06:25:35.834Z,8.87
2018-12-26T06:28:18.137Z,10.20
2018-12-26T06:30:59.003Z,10.50
2018-12-26T06:33:39.672Z,8.97
2018-12-26T06:36:20.548Z,8.80
2018-12-26T06:39:06.430Z,9.67
2018-12-26T06:41:49.164Z,9.60
2018-12-26T06:44:29.761Z,10.20
2018-12-26T06:47:10.801Z,9.40
2018-12-26T06:49:57.451Z,9.27
2018-12-26T06:52:38.493Z,11.17
2018-12-26T06:55:19.675Z,10.37
2018-12-26T06:58:02.531Z,10.00
2018-12-26T07:00:44.790Z,10.20
2018-12-26T07:03:26.136Z,9.10
2018-12-26T07:06:07.286Z,10.27
2018-12-26T07:08:47.791Z,10.63
2018-12-26T07:11:28.173Z,10.20
2018-12-26T07:14:09.152Z,10.87
2018-12-26T07:16:49.816Z,11.70
2018-12-26T07:19:30.582Z,11.03
2018-12-26T07:22:11.611Z,10.63
2018-12-26T07:24:52.358Z,9.70
2018-12-26T07:27:34.887Z,11.00
2018-12-26T07:30:16.100Z,10.27
2018-12-26T07:32:57.466Z,9.97
2018-12-26T07:35:37.846Z,11.30
2018-12-26T07:38:18.434Z,10.40
2018-12-26T07:40:59.118Z,10.37
2018-12-26T07:43:39.790Z,9.87
2018-12-26T07:46:20.835Z,11.70
2018-12-26T07:49:01.380Z,11.30
2018-12-26T07:51:41.807Z,10.97
2018-12-26T07:54:22.858Z,11.10
2018-12-26T07:57:06.514Z,10.80
2018-12-26T07:59:47.690Z,9.77
2018-12-26T08:02:28.579Z,10.20
2018-12-26T08:05:09.160Z,11.07
2018-12-26T08:07:50.104Z,10.20
2018-12-26T08:10:30.926Z,10.07
2018-12-26T08:13:11.938Z,10.07
2018-12-26T08:15:52.753Z,10.23
2018-12-26T08:18:33.642Z,9.93
2018-12-26T08:21:15.055Z,8.47
2018-12-26T08:23:56.586Z,10.17
2018-12-26T08:26:37.650Z,10.27
2018-12-26T08:29:18.404Z,9.87
2018-12-26T08:31:59.418Z,9.77
2018-12-26T08:34:40.105Z,10.20
2018-12-26T08:37:21.101Z,10.35
2018-12-26T08:40:02.195Z,8.57
2018-12-26T08:42:43.455Z,9.53
2018-12-26T08:45:24.237Z,10.20
2018-12-26T08:48:05.009Z,10.27
2018-12-26T08:50:45.909Z,9.90
2018-12-26T08:53:26.589Z,11.03
2018-12-26T08:58:56.113Z,9.57
2018-12-26T09:01:37.946Z,10.00
2018-12-26T09:04:19.575Z,10.20
2018-12-26T09:07:00.471Z,8.70
2018-12-26T09:09:41.220Z,10.10
2018-12-26T09:12:21.981Z,10.00
2018-12-26T09:15:02.823Z,9.50
2018-12-26T09:17:44.018Z,9.33
2018-12-26T09:20:27.350Z,8.80
2018-12-26T09:23:09.477Z,8.30
2018-12-26T09:25:50.344Z,7.40
2018-12-26T09:28:30.894Z,7.90
2018-12-26T09:31:11.367Z,8.00
2018-12-26T09:33:52.286Z,7.50
2018-12-26T09:36:42.178Z,6.47
2018-12-26T09:39:25.699Z,8.30
2018-12-26T09:42:09.506Z,6.83
2018-12-26T09:44:54.557Z,6.35
2018-12-26T09:47:35.516Z,6.20
2018-12-26T09:50:16.424Z,6.22
2018-12-26T09:52:56.987Z,6.23
2018-12-26T09:55:38.246Z,5.97
2018-12-26T09:58:19.396Z,6.63
2018-12-26T10:01:00.839Z,5.22
2018-12-26T10:03:41.602Z,5.13
2018-12-26T10:06:24.086Z,5.10
2018-12-26T10:09:05.201Z,6.23
2018-12-26T10:11:46.532Z,5.50
2018-12-26T10:14:27.009Z,5.60
2018-12-26T10:17:08.123Z,4.70
2018-12-26T10:19:50.260Z,5.80
2018-12-26T10:22:30.912Z,5.43
2018-12-26T10:25:11.424Z,5.33
2018-12-26T10:27:52.438Z,5.70
2018-12-26T10:30:35.932Z,6.27
2018-12-26T10:33:17.251Z,4.70
2018-12-26T10:35:57.708Z,5.27
2018-12-26T10:38:38.962Z,5.20
2018-12-26T10:41:21.830Z,5.55
2018-12-26T10:44:02.516Z,5.13
2018-12-26T10:46:43.054Z,6.00
2018-12-26T10:49:23.566Z,5.87
2018-12-26T10:52:07.894Z,5.90
2018-12-26T10:54:49.187Z,5.87
2018-12-26T10:57:30.359Z,5.27
2018-12-26T11:00:10.933Z,4.90
2018-12-26T11:02:51.366Z,5.90
2018-12-26T11:05:32.219Z,6.40
2018-12-26T11:08:12.705Z,6.13
2018-12-26T11:10:53.518Z,5.90
2018-12-26T11:13:34.264Z,5.80
2018-12-26T11:16:15.557Z,5.40
2018-12-26T11:18:57.482Z,5.30
2018-12-26T11:21:38.089Z,6.43
2018-12-26T11:24:18.983Z,6.20
2018-12-26T11:26:59.931Z,5.93
2018-12-26T11:32:24.932Z,5.30
2018-12-26T11:35:05.748Z,4.97
2018-12-26T11:37:46.460Z,5.37
2018-12-26T11:40:27.509Z,6.17
2018-12-26T11:43:09.026Z,6.03
2018-12-26T11:45:50.352Z,5.27
2018-12-26T11:48:20.644Z,6.20
2018-12-26T11:51:08.883Z,6.13
2018-12-26T11:53:56.945Z,6.60
2018-12-26T11:56:38.052Z,5.90
2018-12-26T11:59:27.005Z,6.13
2018-12-26T12:02:01.861Z,5.70
2018-12-26T12:04:43.097Z,6.07
2018-12-26T12:07:23.594Z,6.60
2018-12-26T12:10:05.936Z,6.67
2018-12-26T12:12:47.933Z,5.60
2018-12-26T12:15:29.351Z,5.87
2018-12-26T12:18:10.842Z,5.30
2018-12-26T12:20:54.024Z,5.73
2018-12-26T12:23:34.826Z,5.90
2018-12-26T12:26:16.572Z,5.37
2018-12-26T12:28:57.298Z,6.60
2018-12-26T12:31:39.421Z,6.20
2018-12-26T12:34:20.498Z,6.60
2018-12-26T12:37:01.421Z,5.87
2018-12-26T12:39:41.990Z,6.33
2018-12-26T12:42:22.578Z,5.73
2018-12-26T12:45:03.396Z,6.40
2018-12-26T12:47:43.898Z,6.93
2018-12-26T12:50:24.358Z,6.20
2018-12-26T12:53:04.834Z,7.27
2018-12-26T12:55:45.626Z,6.93
2018-12-26T12:58:26.378Z,7.30
2018-12-26T13:01:07.246Z,7.10
2018-12-26T13:03:47.768Z,7.40
2018-12-26T13:06:28.916Z,7.30
2018-12-26T13:09:09.542Z,9.20
2018-12-26T13:11:50.495Z,7.67
2018-12-26T13:14:30.891Z,9.37
2018-12-26T13:17:12.073Z,8.20
2018-12-26T13:19:52.880Z,8.00
2018-12-26T13:22:34.440Z,9.10
2018-12-26T13:25:15.287Z,8.77
2018-12-26T13:27:56.170Z,8.17
2018-12-26T13:30:36.822Z,8.70
2018-12-26T13:33:17.630Z,9.40
2018-12-26T13:35:58.674Z,7.60
2018-12-26T13:38:39.558Z,11.43
2018-12-26T13:41:19.851Z,9.67
2018-12-26T13:44:00.424Z,8.40
2018-12-26T13:46:43.890Z,9.77
2018-12-26T13:49:24.838Z,9.60
2018-12-26T13:52:05.768Z,9.20
2018-12-26T13:54:46.360Z,9.00
2018-12-26T13:57:27.163Z,8.83
2018-12-26T14:00:09.605Z,9.60
2018-12-26T14:02:54.330Z,9.00
2018-12-26T14:05:41.926Z,10.63
2018-12-26T14:08:22.483Z,9.80
2018-12-26T14:11:06.330Z,10.00
2018-12-26T14:13:47.204Z,9.77
2018-12-26T14:16:28.003Z,9.50
2018-12-26T14:19:08.414Z,10.83
2018-12-26T14:21:49.574Z,8.90
2018-12-26T14:24:30.287Z,10.67
2018-12-26T14:27:10.748Z,11.10
2018-12-26T14:29:51.698Z,9.80
2018-12-26T14:32:32.843Z,10.53
2018-12-26T14:35:13.441Z,9.83
2018-12-26T14:37:54.595Z,9.80
2018-12-26T14:40:35.665Z,10.43
2018-12-26T14:43:16.470Z,10.40
2018-12-26T14:45:57.515Z,9.33
2018-12-26T14:48:38.404Z,8.70
2018-12-26T14:51:26.365Z,8.90
2018-12-26T14:54:01.717Z,9.77
2018-12-26T14:56:42.804Z,10.37
2018-12-26T14:59:23.601Z,10.77
2018-12-26T15:02:04.447Z,10.57
2018-12-26T15:04:45.201Z,9.60
2018-12-26T15:07:26.313Z,10.70
2018-12-26T15:10:05.723Z,10.27
2018-12-26T15:12:46.431Z,10.50
2018-12-26T15:15:27.250Z,9.33
2018-12-26T15:18:08.249Z,10.53
2018-12-26T15:20:50.384Z,9.67
2018-12-26T15:23:31.568Z,10.50
2018-12-26T15:26:12.876Z,8.17
2018-12-26T15:28:53.644Z,10.03
2018-12-26T15:31:34.227Z,9.03
2018-12-26T15:34:15.158Z,9.10
2018-12-26T15:36:55.752Z,9.20
2018-12-26T15:39:36.536Z,11.10
2018-12-26T15:42:17.343Z,9.07
2018-12-26T15:44:57.939Z,8.80
2018-12-26T15:47:39.327Z,8.60
2018-12-26T15:50:20.107Z,9.30
2018-12-26T15:53:01.256Z,7.40
2018-12-26T15:55:42.048Z,7.27
2018-12-26T15:58:23.237Z,7.33
2018-12-26T16:01:04.765Z,6.40
2018-12-26T16:03:45.306Z,7.90
2018-12-26T16:06:25.890Z,8.37
2018-12-26T16:09:06.858Z,8.30
2018-12-26T16:11:47.629Z,7.03
2018-12-26T16:14:28.591Z,7.90
2018-12-26T16:17:11.858Z,7.50
2018-12-26T16:19:57.033Z,8.20
2018-12-26T16:22:39.613Z,8.50
2018-12-26T16:25:20.314Z,8.60
2018-12-26T16:28:00.940Z,8.60
2018-12-26T16:30:46.152Z,8.63
2018-12-26T16:33:25.166Z,7.30
2018-12-26T16:36:05.553Z,8.67
2018-12-26T16:38:46.027Z,8.43
2018-12-26T16:41:27.384Z,8.10
2018-12-26T16:44:08.007Z,7.90
2018-12-26T16:46:47.280Z,7.40
2018-12-26T16:49:28.167Z,7.90
2018-12-26T16:52:09.217Z,8.50
2018-12-26T16:54:49.752Z,8.10
2018-12-26T16:57:30.724Z,8.70
2018-12-26T17:00:12.100Z,8.60
2018-12-26T17:02:52.923Z,7.70
2018-12-26T17:05:33.341Z,8.50
2018-12-26T17:08:14.025Z,9.40
2018-12-26T17:10:54.968Z,8.70
2018-12-26T17:13:35.498Z,9.27
2018-12-26T17:16:16.760Z,11.20
2018-12-26T17:18:57.515Z,9.27
2018-12-26T17:21:40.152Z,8.50
2018-12-26T17:24:23.009Z,10.07
2018-12-26T17:27:03.856Z,8.40
2018-12-26T17:29:43.230Z,8.20
2018-12-26T17:32:31.530Z,9.03
2018-12-26T17:35:12.892Z,9.00
2018-12-26T17:37:53.400Z,9.80
2018-12-26T17:40:23.514Z,10.40
2018-12-26T17:43:11.806Z,8.60
2018-12-26T17:45:53.294Z,10.50
2018-12-26T17:48:34.356Z,8.40
2018-12-26T17:51:15.344Z,8.67
2018-12-26T17:53:56.030Z,8.60
2018-12-26T17:56:37.371Z,8.00
2018-12-26T17:59:18.235Z,7.97
2018-12-26T18:01:59.070Z,8.67
2018-12-26T18:04:39.812Z,9.57
2018-12-26T18:07:28.432Z,8.93
2018-12-26T18:10:12.849Z,10.30
2018-12-26T18:12:53.984Z,8.13
2018-12-26T18:15:33.086Z,8.77
2018-12-26T18:18:21.102Z,8.77
2018-12-26T18:21:02.138Z,7.97
2018-12-26T18:23:43.023Z,10.83
2018-12-26T18:26:23.909Z,11.20
2018-12-26T18:29:05.152Z,9.43
2018-12-26T18:31:46.239Z,11.37
2018-12-26T18:34:26.901Z,10.10
2018-12-26T18:37:07.985Z,9.87
2018-12-26T18:39:48.467Z,13.00
2018-12-26T18:42:29.297Z,11.77
2018-12-26T18:45:09.741Z,12.27
2018-12-26T18:47:50.494Z,13.90
2018-12-26T18:50:33.403Z,13.47
2018-12-26T18:53:14.456Z,13.80
2018-12-26T18:55:55.121Z,13.67
2018-12-26T18:58:35.776Z,14.30
2018-12-26T19:01:16.340Z,12.10
2018-12-26T19:03:57.062Z,13.27
2018-12-26T19:06:37.842Z,12.57
2018-12-26T19:09:18.342Z,14.80
2018-12-26T19:11:59.146Z,14.63
2018-12-26T19:14:40.456Z,15.53
2018-12-26T19:17:20.913Z,13.60
2018-12-26T19:20:01.849Z,14.50
2018-12-26T19:22:42.610Z,15.77
2018-12-26T19:25:23.227Z,16.30
2018-12-26T19:28:04.526Z,16.20
2018-12-26T19:30:45.466Z,15.80
2018-12-26T19:33:26.330Z,16.10
2018-12-26T19:36:07.117Z,15.87
2018-12-26T19:38:47.688Z,17.73
2018-12-26T19:41:28.566Z,18.37
2018-12-26T19:44:09.462Z,17.80
2018-12-26T19:46:50.146Z,16.60
2018-12-26T19:49:30.887Z,17.63
2018-12-26T19:52:11.760Z,18.67
2018-12-26T19:54:52.649Z,18.90
2018-12-26T19:57:33.545Z,16.97
2018-12-26T20:00:14.260Z,18.83
2018-12-26T20:02:55.206Z,18.03
2018-12-26T20:05:35.904Z,15.87
2018-12-26T20:08:19.059Z,16.13
2018-12-26T20:11:02.132Z,17.23
2018-12-26T20:13:42.646Z,19.20
2018-12-26T20:16:23.367Z,17.97
2018-12-26T20:19:04.235Z,18.83
2018-12-26T20:21:45.014Z,18.47
2018-12-26T20:24:25.797Z,19.60
2018-12-26T20:27:06.773Z,18.70
2018-12-26T20:29:48.138Z,17.50
2018-12-26T20:32:29.772Z,18.43
2018-12-26T20:35:10.819Z,20.73
2018-12-26T20:37:51.501Z,17.27
2018-12-26T20:40:32.078Z,19.27
2018-12-26T20:43:12.785Z,15.97
2018-12-26T20:45:54.206Z,18.73
2018-12-26T20:48:36.058Z,20.03
2018-12-26T20:51:17.453Z,20.30
2018-12-26T20:53:57.839Z,17.87
2018-12-26T20:56:38.290Z,22.30
2018-12-26T20:59:19.045Z,18.40
2018-12-26T21:02:05.602Z,19.30
2018-12-26T21:04:42.977Z,20.07
2018-12-26T21:07:23.479Z,19.20
2018-12-26T21:10:04.386Z,18.40
2018-12-26T21:12:45.428Z,16.80
2018-12-26T21:15:25.956Z,18.60
2018-12-26T21:18:07.188Z,19.27
2018-12-26T21:20:49.553Z,19.80
2018-12-26T21:23:30.430Z,19.83
2018-12-26T21:26:11.180Z,18.03
2018-12-26T21:28:51.678Z,19.90
2018-12-26T21:31:34.147Z,17.43
2018-12-26T21:34:15.620Z,21.37
2018-12-26T21:36:56.360Z,19.80
2018-12-26T21:39:37.298Z,18.63
2018-12-26T21:42:18.079Z,19.60
2018-12-26T21:44:59.721Z,17.80
2018-12-26T21:47:40.624Z,17.27
2018-12-26T21:50:21.327Z,20.93
2018-12-26T21:53:02.073Z,20.50
2018-12-26T21:55:44.152Z,18.10
2018-12-26T21:58:23.483Z,18.40
2018-12-26T22:01:04.168Z,18.93
2018-12-26T22:03:45.382Z,19.50
2018-12-26T22:06:26.286Z,20.93
2018-12-26T22:09:06.997Z,18.57
2018-12-26T22:11:47.619Z,17.73
2018-12-26T22:14:28.540Z,18.17
2018-12-26T22:17:09.281Z,16.77
2018-12-26T22:19:49.887Z,19.30
2018-12-26T22:22:30.613Z,19.13
2018-12-26T22:25:11.213Z,17.33
2018-12-26T22:27:52.273Z,17.80
2018-12-26T22:30:33.137Z,15.30
2018-12-26T22:33:13.685Z,16.57
2018-12-26T22:35:54.691Z,15.90
2018-12-26T22:38:35.322Z,16.80
2018-12-26T22:41:15.928Z,14.70
2018-12-26T22:43:56.657Z,16.13
2018-12-26T22:46:37.391Z,14.70
2018-12-26T22:49:18.309Z,13.93
2018-12-26T22:51:59.282Z,14.30
2018-12-26T22:54:40.011Z,13.57
2018-12-26T22:57:20.843Z,14.13
2018-12-26T23:00:01.852Z,13.50
2018-12-26T23:02:42.284Z,14.80
2018-12-26T23:05:25.260Z,15.67
2018-12-26T23:08:04.783Z,13.90
2018-12-26T23:10:52.895Z,15.63
2018-12-26T23:13:34.197Z,14.00
2018-12-26T23:16:14.969Z,13.13
2018-12-26T23:18:55.827Z,13.07
2018-12-26T23:21:36.471Z,14.67
2018-12-26T23:24:17.237Z,12.90
2018-12-26T23:26:58.144Z,12.90
2018-12-26T23:29:39.133Z,14.63
2018-12-26T23:32:19.558Z,14.67
2018-12-26T23:35:00.441Z,13.20
2018-12-26T23:37:41.839Z,14.13
2018-12-26T23:40:23.264Z,13.87
2018-12-26T23:43:03.960Z,14.37
2018-12-26T23:45:44.678Z,13.03
2018-12-26T23:48:25.203Z,13.70
2018-12-26T23:51:05.766Z,13.43
2018-12-26T23:53:46.230Z,13.90
2018-12-26T23:56:27.543Z,14.47
2018-12-26T23:59:08.081Z,14.40
